sensor_id;sensor_type;location;lat;lon;timestamp;temperature;humidity
9640;DHT22;51745;50.872;4.732;2023-02-27T00:02:28;-0.70;99.90
9640;DHT22;51745;50.872;4.732;2023-02-27T00:05:17;-0.60;99.90
9640;DHT22;51745;50.872;4.732;2023-02-27T00:08:06;-0.60;99.90
9640;DHT22;51745;50.872;4.732;2023-02-27T00:10:54;-0.30;99.90
9640;DHT22;51745;50.872;4.732;2023-02-27T00:13:42;-0.60;99.90
9640;DHT22;51745;50.872;4.732;2023-02-27T00:16:29;-0.60;99.90
9640;DHT22;51745;50.872;4.732;2023-02-27T00:19:17;-0.50;99.90
9640;DHT22;51745;50.872;4.732;2023-02-27T00:22:06;-0.60;99.90
9640;DHT22;51745;50.872;4.732;2023-02-27T00:24:56;-0.50;99.90
9640;DHT22;51745;50.872;4.732;2023-02-27T00:27:44;-0.50;99.90
9640;DHT22;51745;50.872;4.732;2023-02-27T00:30:32;-0.50;99.90
9640;DHT22;51745;50.872;4.732;2023-02-27T00:33:19;-0.60;99.90
9640;DHT22;51745;50.872;4.732;2023-02-27T00:36:07;-0.50;99.90
9640;DHT22;51745;50.872;4.732;2023-02-27T00:38:54;-0.50;99.90
9640;DHT22;51745;50.872;4.732;2023-02-27T00:41:45;-0.40;99.90
9640;DHT22;51745;50.872;4.732;2023-02-27T00:44:37;-0.40;99.90
9640;DHT22;51745;50.872;4.732;2023-02-27T00:47:26;-0.40;99.90
9640;DHT22;51745;50.872;4.732;2023-02-27T00:50:14;-0.30;99.90
9640;DHT22;51745;50.872;4.732;2023-02-27T00:53:02;-0.60;99.90
9640;DHT22;51745;50.872;4.732;2023-02-27T00:55:49;-0.60;99.90
9640;DHT22;51745;50.872;4.732;2023-02-27T00:58:42;-0.70;99.90
9640;DHT22;51745;50.872;4.732;2023-02-27T01:01:29;-0.70;99.90
9640;DHT22;51745;50.872;4.732;2023-02-27T01:04:19;-0.80;99.90
9640;DHT22;51745;50.872;4.732;2023-02-27T01:07:07;-0.90;99.90
9640;DHT22;51745;50.872;4.732;2023-02-27T01:09:55;-0.90;99.90
9640;DHT22;51745;50.872;4.732;2023-02-27T01:12:43;-0.90;99.90
9640;DHT22;51745;50.872;4.732;2023-02-27T01:15:35;-0.80;99.90
9640;DHT22;51745;50.872;4.732;2023-02-27T01:18:24;-0.80;99.90
9640;DHT22;51745;50.872;4.732;2023-02-27T01:21:13;-0.80;99.90
9640;DHT22;51745;50.872;4.732;2023-02-27T01:24:02;-0.80;99.90
9640;DHT22;51745;50.872;4.732;2023-02-27T01:26:50;-0.90;99.90
9640;DHT22;51745;50.872;4.732;2023-02-27T01:29:38;-0.90;99.90
9640;DHT22;51745;50.872;4.732;2023-02-27T01:32:28;-1.00;99.90
9640;DHT22;51745;50.872;4.732;2023-02-27T01:35:15;-1.00;99.90
9640;DHT22;51745;50.872;4.732;2023-02-27T01:38:03;-1.00;99.90
9640;DHT22;51745;50.872;4.732;2023-02-27T01:40:51;-1.00;99.90
9640;DHT22;51745;50.872;4.732;2023-02-27T01:43:52;-1.00;99.90
9640;DHT22;51745;50.872;4.732;2023-02-27T01:46:40;-1.10;99.90
9640;DHT22;51745;50.872;4.732;2023-02-27T01:49:33;-1.10;99.90
9640;DHT22;51745;50.872;4.732;2023-02-27T01:52:21;-1.10;99.90
9640;DHT22;51745;50.872;4.732;2023-02-27T01:55:09;-1.10;99.90
9640;DHT22;51745;50.872;4.732;2023-02-27T01:57:58;-1.10;99.90
9640;DHT22;51745;50.872;4.732;2023-02-27T02:00:47;-1.20;99.90
9640;DHT22;51745;50.872;4.732;2023-02-27T02:03:36;-1.20;99.90
9640;DHT22;51745;50.872;4.732;2023-02-27T02:06:28;-1.20;99.90
9640;DHT22;51745;50.872;4.732;2023-02-27T02:09:17;-1.20;99.90
9640;DHT22;51745;50.872;4.732;2023-02-27T02:12:05;-1.10;99.90
9640;DHT22;51745;50.872;4.732;2023-02-27T02:14:52;1.90;99.90
9640;DHT22;51745;50.872;4.732;2023-02-27T02:17:42;0.80;99.90
9640;DHT22;51745;50.872;4.732;2023-02-27T02:20:41;-1.20;99.90
9640;DHT22;51745;50.872;4.732;2023-02-27T02:23:38;-1.20;99.90
9640;DHT22;51745;50.872;4.732;2023-02-27T02:26:36;-1.20;99.90
9640;DHT22;51745;50.872;4.732;2023-02-27T02:29:36;-1.20;99.90
9640;DHT22;51745;50.872;4.732;2023-02-27T02:39:04;-1.20;99.90
9640;DHT22;51745;50.872;4.732;2023-02-27T02:41:59;-1.20;99.90
9640;DHT22;51745;50.872;4.732;2023-02-27T02:44:51;-1.20;99.90
9640;DHT22;51745;50.872;4.732;2023-02-27T02:47:45;-1.20;99.90
9640;DHT22;51745;50.872;4.732;2023-02-27T02:50:40;-1.20;99.90
9640;DHT22;51745;50.872;4.732;2023-02-27T02:53:30;-1.30;99.90
9640;DHT22;51745;50.872;4.732;2023-02-27T02:56:27;-1.30;99.90
9640;DHT22;51745;50.872;4.732;2023-02-27T02:59:18;-1.30;99.90
9640;DHT22;51745;50.872;4.732;2023-02-27T03:02:08;-1.20;99.90
9640;DHT22;51745;50.872;4.732;2023-02-27T03:04:58;-1.30;99.90
9640;DHT22;51745;50.872;4.732;2023-02-27T03:07:47;-1.30;99.90
9640;DHT22;51745;50.872;4.732;2023-02-27T03:10:39;-1.30;99.90
9640;DHT22;51745;50.872;4.732;2023-02-27T03:13:32;-1.30;99.90
9640;DHT22;51745;50.872;4.732;2023-02-27T03:16:21;-1.30;99.90
9640;DHT22;51745;50.872;4.732;2023-02-27T03:19:10;-1.30;99.90
9640;DHT22;51745;50.872;4.732;2023-02-27T03:21:59;-1.30;99.90
9640;DHT22;51745;50.872;4.732;2023-02-27T03:24:49;-1.40;99.90
9640;DHT22;51745;50.872;4.732;2023-02-27T03:27:39;-1.40;99.90
9640;DHT22;51745;50.872;4.732;2023-02-27T03:30:31;-1.40;99.90
9640;DHT22;51745;50.872;4.732;2023-02-27T03:33:22;-1.70;99.90
9640;DHT22;51745;50.872;4.732;2023-02-27T03:36:14;-1.50;99.90
9640;DHT22;51745;50.872;4.732;2023-02-27T03:39:05;-1.50;99.90
9640;DHT22;51745;50.872;4.732;2023-02-27T03:42:00;-1.60;99.90
9640;DHT22;51745;50.872;4.732;2023-02-27T03:45:11;-1.60;99.90
9640;DHT22;51745;50.872;4.732;2023-02-27T03:48:03;-1.60;99.90
9640;DHT22;51745;50.872;4.732;2023-02-27T03:50:52;-1.70;99.90
9640;DHT22;51745;50.872;4.732;2023-02-27T03:53:41;-1.60;99.90
9640;DHT22;51745;50.872;4.732;2023-02-27T03:56:31;-1.70;99.90
9640;DHT22;51745;50.872;4.732;2023-02-27T03:59:20;-1.70;99.90
9640;DHT22;51745;50.872;4.732;2023-02-27T04:02:09;-1.70;99.90
9640;DHT22;51745;50.872;4.732;2023-02-27T04:04:59;-1.60;99.90
9640;DHT22;51745;50.872;4.732;2023-02-27T04:08:08;-1.70;99.90
9640;DHT22;51745;50.872;4.732;2023-02-27T04:14:22;-1.70;99.90
9640;DHT22;51745;50.872;4.732;2023-02-27T04:17:13;-1.70;99.90
9640;DHT22;51745;50.872;4.732;2023-02-27T04:20:09;-1.60;99.90
9640;DHT22;51745;50.872;4.732;2023-02-27T04:23:01;-1.60;99.90
9640;DHT22;51745;50.872;4.732;2023-02-27T04:25:50;-1.60;99.90
9640;DHT22;51745;50.872;4.732;2023-02-27T04:28:40;-1.70;99.90
9640;DHT22;51745;50.872;4.732;2023-02-27T04:31:29;-1.70;99.90
9640;DHT22;51745;50.872;4.732;2023-02-27T04:34:20;-1.80;99.90
9640;DHT22;51745;50.872;4.732;2023-02-27T04:37:11;-1.80;99.90
9640;DHT22;51745;50.872;4.732;2023-02-27T04:40:01;-1.90;99.90
9640;DHT22;51745;50.872;4.732;2023-02-27T04:42:53;-1.90;99.90
9640;DHT22;51745;50.872;4.732;2023-02-27T04:45:43;-2.00;99.90
9640;DHT22;51745;50.872;4.732;2023-02-27T04:48:34;-2.00;99.90
9640;DHT22;51745;50.872;4.732;2023-02-27T04:51:23;-2.10;99.90
9640;DHT22;51745;50.872;4.732;2023-02-27T04:54:15;-2.20;99.90
9640;DHT22;51745;50.872;4.732;2023-02-27T04:57:05;-2.10;99.90
9640;DHT22;51745;50.872;4.732;2023-02-27T04:59:56;-2.20;99.90
9640;DHT22;51745;50.872;4.732;2023-02-27T05:02:44;-2.10;99.90
9640;DHT22;51745;50.872;4.732;2023-02-27T05:05:34;-2.20;99.90
9640;DHT22;51745;50.872;4.732;2023-02-27T05:08:25;-2.20;99.90
9640;DHT22;51745;50.872;4.732;2023-02-27T05:11:17;-2.20;99.90
9640;DHT22;51745;50.872;4.732;2023-02-27T05:14:09;-2.20;99.90
9640;DHT22;51745;50.872;4.732;2023-02-27T05:16:59;-2.20;99.90
9640;DHT22;51745;50.872;4.732;2023-02-27T05:19:48;-2.20;99.90
9640;DHT22;51745;50.872;4.732;2023-02-27T05:22:39;-2.10;99.90
9640;DHT22;51745;50.872;4.732;2023-02-27T05:25:31;-2.10;99.90
9640;DHT22;51745;50.872;4.732;2023-02-27T05:28:22;-2.10;99.90
9640;DHT22;51745;50.872;4.732;2023-02-27T05:31:14;-2.20;99.90
9640;DHT22;51745;50.872;4.732;2023-02-27T05:34:05;-2.20;99.90
9640;DHT22;51745;50.872;4.732;2023-02-27T05:36:55;-2.20;99.90
9640;DHT22;51745;50.872;4.732;2023-02-27T05:39:44;-2.20;99.90
9640;DHT22;51745;50.872;4.732;2023-02-27T05:42:33;-2.20;99.90
9640;DHT22;51745;50.872;4.732;2023-02-27T05:45:24;-2.30;99.90
9640;DHT22;51745;50.872;4.732;2023-02-27T05:48:14;-2.30;99.90
9640;DHT22;51745;50.872;4.732;2023-02-27T05:51:04;-2.40;99.90
9640;DHT22;51745;50.872;4.732;2023-02-27T05:53:53;-2.40;99.90
9640;DHT22;51745;50.872;4.732;2023-02-27T05:56:44;-2.40;99.90
9640;DHT22;51745;50.872;4.732;2023-02-27T05:59:34;-2.40;99.90
9640;DHT22;51745;50.872;4.732;2023-02-27T06:02:30;-2.50;99.90
9640;DHT22;51745;50.872;4.732;2023-02-27T06:05:18;-2.50;99.90
9640;DHT22;51745;50.872;4.732;2023-02-27T06:08:09;-2.40;99.90
9640;DHT22;51745;50.872;4.732;2023-02-27T06:10:57;-2.40;99.90
9640;DHT22;51745;50.872;4.732;2023-02-27T06:13:45;-2.50;99.90
9640;DHT22;51745;50.872;4.732;2023-02-27T06:16:33;-2.50;99.90
9640;DHT22;51745;50.872;4.732;2023-02-27T06:19:24;-2.50;99.90
9640;DHT22;51745;50.872;4.732;2023-02-27T06:22:12;-2.50;99.90
9640;DHT22;51745;50.872;4.732;2023-02-27T06:25:00;-2.50;99.90
9640;DHT22;51745;50.872;4.732;2023-02-27T06:27:50;-2.50;99.90
9640;DHT22;51745;50.872;4.732;2023-02-27T06:30:39;-2.40;99.90
9640;DHT22;51745;50.872;4.732;2023-02-27T06:33:27;-2.50;99.90
9640;DHT22;51745;50.872;4.732;2023-02-27T06:36:16;-2.30;99.90
9640;DHT22;51745;50.872;4.732;2023-02-27T06:39:06;-2.40;99.90
9640;DHT22;51745;50.872;4.732;2023-02-27T06:41:54;-2.50;99.90
9640;DHT22;51745;50.872;4.732;2023-02-27T06:44:42;-2.50;99.90
9640;DHT22;51745;50.872;4.732;2023-02-27T06:47:29;-2.50;99.90
9640;DHT22;51745;50.872;4.732;2023-02-27T06:50:17;-2.50;99.90
9640;DHT22;51745;50.872;4.732;2023-02-27T06:53:07;-2.50;99.90
9640;DHT22;51745;50.872;4.732;2023-02-27T06:55:56;-2.50;99.90
9640;DHT22;51745;50.872;4.732;2023-02-27T06:58:44;-2.50;99.90
9640;DHT22;51745;50.872;4.732;2023-02-27T07:01:32;-2.60;99.90
9640;DHT22;51745;50.872;4.732;2023-02-27T07:04:19;-2.50;99.90
9640;DHT22;51745;50.872;4.732;2023-02-27T07:07:07;-2.60;99.90
9640;DHT22;51745;50.872;4.732;2023-02-27T07:10:21;-2.40;99.90
9640;DHT22;51745;50.872;4.732;2023-02-27T07:13:12;-2.40;99.90
9640;DHT22;51745;50.872;4.732;2023-02-27T07:16:07;-2.40;99.90
9640;DHT22;51745;50.872;4.732;2023-02-27T07:18:55;-2.50;99.90
9640;DHT22;51745;50.872;4.732;2023-02-27T07:21:45;-2.40;99.90
9640;DHT22;51745;50.872;4.732;2023-02-27T07:24:34;-2.30;99.90
9640;DHT22;51745;50.872;4.732;2023-02-27T07:27:25;-2.00;99.90
9640;DHT22;51745;50.872;4.732;2023-02-27T07:30:15;-2.20;99.90
9640;DHT22;51745;50.872;4.732;2023-02-27T07:33:03;-2.10;99.90
9640;DHT22;51745;50.872;4.732;2023-02-27T07:35:51;-2.00;99.90
9640;DHT22;51745;50.872;4.732;2023-02-27T07:38:39;-1.90;99.90
9640;DHT22;51745;50.872;4.732;2023-02-27T07:41:28;-1.90;99.90
9640;DHT22;51745;50.872;4.732;2023-02-27T07:44:20;-1.80;99.90
9640;DHT22;51745;50.872;4.732;2023-02-27T07:47:07;-1.70;99.90
9640;DHT22;51745;50.872;4.732;2023-02-27T07:49:56;-1.60;99.90
9640;DHT22;51745;50.872;4.732;2023-02-27T07:52:44;-1.60;99.90
9640;DHT22;51745;50.872;4.732;2023-02-27T07:55:33;-1.50;99.90
9640;DHT22;51745;50.872;4.732;2023-02-27T07:58:20;-1.40;99.90
9640;DHT22;51745;50.872;4.732;2023-02-27T08:01:09;-1.40;99.90
9640;DHT22;51745;50.872;4.732;2023-02-27T08:03:57;-1.20;99.90
9640;DHT22;51745;50.872;4.732;2023-02-27T08:06:45;-1.20;99.90
9640;DHT22;51745;50.872;4.732;2023-02-27T08:09:32;-1.20;99.90
9640;DHT22;51745;50.872;4.732;2023-02-27T08:12:20;-1.00;99.90
9640;DHT22;51745;50.872;4.732;2023-02-27T08:15:09;-1.00;99.90
9640;DHT22;51745;50.872;4.732;2023-02-27T08:17:57;-0.90;99.90
9640;DHT22;51745;50.872;4.732;2023-02-27T08:20:47;-0.90;99.90
9640;DHT22;51745;50.872;4.732;2023-02-27T08:23:34;-0.80;99.90
9640;DHT22;51745;50.872;4.732;2023-02-27T08:26:22;-0.70;99.90
9640;DHT22;51745;50.872;4.732;2023-02-27T08:29:11;-0.70;99.90
9640;DHT22;51745;50.872;4.732;2023-02-27T08:32:03;-0.60;99.90
9640;DHT22;51745;50.872;4.732;2023-02-27T08:34:52;-0.50;99.90
9640;DHT22;51745;50.872;4.732;2023-02-27T08:37:41;-0.40;99.90
9640;DHT22;51745;50.872;4.732;2023-02-27T08:40:30;-0.30;99.90
9640;DHT22;51745;50.872;4.732;2023-02-27T08:43:18;-0.20;99.90
9640;DHT22;51745;50.872;4.732;2023-02-27T08:46:05;-0.10;99.90
9640;DHT22;51745;50.872;4.732;2023-02-27T08:48:55;0.00;99.90
9640;DHT22;51745;50.872;4.732;2023-02-27T08:51:44;0.10;99.90
9640;DHT22;51745;50.872;4.732;2023-02-27T08:54:32;0.30;99.90
9640;DHT22;51745;50.872;4.732;2023-02-27T08:57:20;0.20;99.90
9640;DHT22;51745;50.872;4.732;2023-02-27T09:00:08;0.20;99.90
9640;DHT22;51745;50.872;4.732;2023-02-27T09:03:00;0.20;99.90
9640;DHT22;51745;50.872;4.732;2023-02-27T09:05:48;0.80;99.90
9640;DHT22;51745;50.872;4.732;2023-02-27T09:08:37;-0.10;99.90
9640;DHT22;51745;50.872;4.732;2023-02-27T09:11:26;0.50;99.90
9640;DHT22;51745;50.872;4.732;2023-02-27T09:14:14;0.60;99.90
9640;DHT22;51745;50.872;4.732;2023-02-27T09:17:02;0.80;99.90
9640;DHT22;51745;50.872;4.732;2023-02-27T09:19:50;1.00;99.90
9640;DHT22;51745;50.872;4.732;2023-02-27T09:22:41;0.90;99.90
9640;DHT22;51745;50.872;4.732;2023-02-27T09:25:30;0.80;99.90
9640;DHT22;51745;50.872;4.732;2023-02-27T09:28:17;1.00;99.90
9640;DHT22;51745;50.872;4.732;2023-02-27T09:31:08;1.20;99.90
9640;DHT22;51745;50.872;4.732;2023-02-27T09:33:57;1.20;99.90
9640;DHT22;51745;50.872;4.732;2023-02-27T09:36:46;1.40;99.90
9640;DHT22;51745;50.872;4.732;2023-02-27T09:39:34;1.50;99.90
9640;DHT22;51745;50.872;4.732;2023-02-27T09:42:24;1.70;99.90
9640;DHT22;51745;50.872;4.732;2023-02-27T09:45:15;1.80;99.90
9640;DHT22;51745;50.872;4.732;2023-02-27T09:48:05;1.90;99.90
9640;DHT22;51745;50.872;4.732;2023-02-27T09:50:55;2.00;99.90
9640;DHT22;51745;50.872;4.732;2023-02-27T09:53:46;2.10;99.90
9640;DHT22;51745;50.872;4.732;2023-02-27T09:56:38;2.30;99.90
9640;DHT22;51745;50.872;4.732;2023-02-27T09:59:30;2.40;99.90
9640;DHT22;51745;50.872;4.732;2023-02-27T10:02:24;2.50;99.90
9640;DHT22;51745;50.872;4.732;2023-02-27T10:05:16;2.50;99.90
9640;DHT22;51745;50.872;4.732;2023-02-27T10:08:11;2.50;99.90
9640;DHT22;51745;50.872;4.732;2023-02-27T10:11:02;2.50;99.90
9640;DHT22;51745;50.872;4.732;2023-02-27T10:13:55;2.60;99.90
9640;DHT22;51745;50.872;4.732;2023-02-27T10:16:46;2.60;99.90
9640;DHT22;51745;50.872;4.732;2023-02-27T10:19:35;2.80;99.90
9640;DHT22;51745;50.872;4.732;2023-02-27T10:22:25;2.90;99.90
9640;DHT22;51745;50.872;4.732;2023-02-27T10:28:16;3.00;99.90
9640;DHT22;51745;50.872;4.732;2023-02-27T10:33:53;3.00;99.90
9640;DHT22;51745;50.872;4.732;2023-02-27T10:36:41;3.10;99.90
9640;DHT22;51745;50.872;4.732;2023-02-27T10:39:29;3.20;99.90
9640;DHT22;51745;50.872;4.732;2023-02-27T10:42:18;3.30;99.90
9640;DHT22;51745;50.872;4.732;2023-02-27T10:45:10;3.40;99.90
9640;DHT22;51745;50.872;4.732;2023-02-27T10:48:00;3.40;99.90
9640;DHT22;51745;50.872;4.732;2023-02-27T10:50:50;3.40;99.90
9640;DHT22;51745;50.872;4.732;2023-02-27T10:53:40;6.30;99.90
9640;DHT22;51745;50.872;4.732;2023-02-27T10:56:31;3.50;99.90
9640;DHT22;51745;50.872;4.732;2023-02-27T10:59:24;3.40;99.90
9640;DHT22;51745;50.872;4.732;2023-02-27T11:02:19;3.60;99.90
9640;DHT22;51745;50.872;4.732;2023-02-27T11:05:16;5.60;99.90
9640;DHT22;51745;50.872;4.732;2023-02-27T11:11:00;3.80;99.90
9640;DHT22;51745;50.872;4.732;2023-02-27T11:13:48;3.80;99.90
9640;DHT22;51745;50.872;4.732;2023-02-27T11:16:44;3.70;99.90
9640;DHT22;51745;50.872;4.732;2023-02-27T11:19:33;3.60;99.90
9640;DHT22;51745;50.872;4.732;2023-02-27T11:25:16;3.70;99.90
9640;DHT22;51745;50.872;4.732;2023-02-27T11:28:24;3.80;99.90
9640;DHT22;51745;50.872;4.732;2023-02-27T11:31:14;3.90;99.90
9640;DHT22;51745;50.872;4.732;2023-02-27T11:34:03;3.90;99.90
9640;DHT22;51745;50.872;4.732;2023-02-27T11:36:54;3.90;99.90
9640;DHT22;51745;50.872;4.732;2023-02-27T11:39:46;4.00;99.90
9640;DHT22;51745;50.872;4.732;2023-02-27T11:42:35;4.10;99.90
9640;DHT22;51745;50.872;4.732;2023-02-27T11:45:29;4.30;99.90
9640;DHT22;51745;50.872;4.732;2023-02-27T11:48:38;4.50;99.90
9640;DHT22;51745;50.872;4.732;2023-02-27T11:51:29;4.30;99.90
9640;DHT22;51745;50.872;4.732;2023-02-27T11:54:20;4.40;99.90
9640;DHT22;51745;50.872;4.732;2023-02-27T11:57:19;4.50;99.90
9640;DHT22;51745;50.872;4.732;2023-02-27T12:00:14;4.40;99.90
9640;DHT22;51745;50.872;4.732;2023-02-27T12:03:09;4.50;99.90
9640;DHT22;51745;50.872;4.732;2023-02-27T12:06:02;4.80;99.90
9640;DHT22;51745;50.872;4.732;2023-02-27T12:08:51;5.30;99.90
9640;DHT22;51745;50.872;4.732;2023-02-27T12:11:41;5.40;99.90
9640;DHT22;51745;50.872;4.732;2023-02-27T12:14:31;5.60;99.90
9640;DHT22;51745;50.872;4.732;2023-02-27T12:17:21;5.20;99.90
9640;DHT22;51745;50.872;4.732;2023-02-27T12:23:18;5.00;99.90
9640;DHT22;51745;50.872;4.732;2023-02-27T12:26:09;6.00;99.90
9640;DHT22;51745;50.872;4.732;2023-02-27T12:29:01;5.80;99.90
9640;DHT22;51745;50.872;4.732;2023-02-27T12:31:50;5.20;99.90
9640;DHT22;51745;50.872;4.732;2023-02-27T12:34:40;5.00;99.90
9640;DHT22;51745;50.872;4.732;2023-02-27T12:40:20;5.10;99.90
9640;DHT22;51745;50.872;4.732;2023-02-27T12:43:21;5.40;99.90
9640;DHT22;51745;50.872;4.732;2023-02-27T12:46:18;5.60;99.90
9640;DHT22;51745;50.872;4.732;2023-02-27T12:49:20;5.30;99.90
9640;DHT22;51745;50.872;4.732;2023-02-27T12:52:11;5.30;99.90
9640;DHT22;51745;50.872;4.732;2023-02-27T12:55:05;5.00;99.90
9640;DHT22;51745;50.872;4.732;2023-02-27T12:58:04;5.10;99.90
9640;DHT22;51745;50.872;4.732;2023-02-27T13:00:54;5.00;99.90
9640;DHT22;51745;50.872;4.732;2023-02-27T13:03:47;5.00;99.90
9640;DHT22;51745;50.872;4.732;2023-02-27T13:06:38;5.00;99.90
9640;DHT22;51745;50.872;4.732;2023-02-27T13:09:30;5.40;99.90
9640;DHT22;51745;50.872;4.732;2023-02-27T13:12:22;5.10;99.90
9640;DHT22;51745;50.872;4.732;2023-02-27T13:15:15;5.30;99.90
9640;DHT22;51745;50.872;4.732;2023-02-27T13:18:06;5.50;99.90
9640;DHT22;51745;50.872;4.732;2023-02-27T13:20:55;5.80;99.90
9640;DHT22;51745;50.872;4.732;2023-02-27T13:23:50;5.90;99.90
9640;DHT22;51745;50.872;4.732;2023-02-27T13:26:40;5.70;99.90
9640;DHT22;51745;50.872;4.732;2023-02-27T13:29:32;5.50;99.90
9640;DHT22;51745;50.872;4.732;2023-02-27T13:32:25;5.40;99.90
9640;DHT22;51745;50.872;4.732;2023-02-27T13:35:32;5.20;99.90
9640;DHT22;51745;50.872;4.732;2023-02-27T13:38:30;5.60;99.90
9640;DHT22;51745;50.872;4.732;2023-02-27T13:53:25;5.50;99.90
9640;DHT22;51745;50.872;4.732;2023-02-27T13:56:18;5.80;99.90
9640;DHT22;51745;50.872;4.732;2023-02-27T14:04:45;6.60;99.90
9640;DHT22;51745;50.872;4.732;2023-02-27T14:07:46;6.40;99.90
9640;DHT22;51745;50.872;4.732;2023-02-27T14:10:36;6.00;99.90
9640;DHT22;51745;50.872;4.732;2023-02-27T14:16:15;5.90;99.90
9640;DHT22;51745;50.872;4.732;2023-02-27T14:19:42;6.10;99.90
9640;DHT22;51745;50.872;4.732;2023-02-27T14:22:35;6.20;99.90
9640;DHT22;51745;50.872;4.732;2023-02-27T14:25:31;6.50;99.90
9640;DHT22;51745;50.872;4.732;2023-02-27T14:28:22;6.90;99.90
9640;DHT22;51745;50.872;4.732;2023-02-27T14:31:17;7.20;99.90
9640;DHT22;51745;50.872;4.732;2023-02-27T14:34:05;7.30;99.90
9640;DHT22;51745;50.872;4.732;2023-02-27T14:36:55;7.40;99.90
9640;DHT22;51745;50.872;4.732;2023-02-27T14:39:43;6.60;99.90
9640;DHT22;51745;50.872;4.732;2023-02-27T14:42:42;6.50;99.90
9640;DHT22;51745;50.872;4.732;2023-02-27T14:45:33;6.30;99.90
9640;DHT22;51745;50.872;4.732;2023-02-27T14:48:25;6.40;99.90
9640;DHT22;51745;50.872;4.732;2023-02-27T14:51:13;6.60;99.90
9640;DHT22;51745;50.872;4.732;2023-02-27T14:54:03;6.20;99.90
9640;DHT22;51745;50.872;4.732;2023-02-27T14:56:54;6.10;99.90
9640;DHT22;51745;50.872;4.732;2023-02-27T14:59:42;5.70;99.90
9640;DHT22;51745;50.872;4.732;2023-02-27T15:02:32;6.80;99.90
9640;DHT22;51745;50.872;4.732;2023-02-27T15:05:27;6.70;99.90
9640;DHT22;51745;50.872;4.732;2023-02-27T15:08:20;6.50;99.90
9640;DHT22;51745;50.872;4.732;2023-02-27T15:11:12;6.00;99.90
9640;DHT22;51745;50.872;4.732;2023-02-27T15:14:00;5.70;99.90
9640;DHT22;51745;50.872;4.732;2023-02-27T15:16:52;5.40;99.90
9640;DHT22;51745;50.872;4.732;2023-02-27T15:19:45;5.40;99.90
9640;DHT22;51745;50.872;4.732;2023-02-27T15:22:35;5.20;99.90
9640;DHT22;51745;50.872;4.732;2023-02-27T15:25:26;5.20;99.90
9640;DHT22;51745;50.872;4.732;2023-02-27T15:28:17;5.40;99.90
9640;DHT22;51745;50.872;4.732;2023-02-27T15:31:09;5.70;99.90
9640;DHT22;51745;50.872;4.732;2023-02-27T15:33:58;5.70;99.90
9640;DHT22;51745;50.872;4.732;2023-02-27T15:36:49;5.40;99.90
9640;DHT22;51745;50.872;4.732;2023-02-27T15:39:38;5.10;99.90
9640;DHT22;51745;50.872;4.732;2023-02-27T15:42:27;4.80;99.90
9640;DHT22;51745;50.872;4.732;2023-02-27T15:45:16;3.70;99.90
9640;DHT22;51745;50.872;4.732;2023-02-27T15:48:05;4.90;99.90
9640;DHT22;51745;50.872;4.732;2023-02-27T15:53:46;5.10;99.90
9640;DHT22;51745;50.872;4.732;2023-02-27T15:56:36;5.10;99.90
9640;DHT22;51745;50.872;4.732;2023-02-27T15:59:24;5.00;99.90
9640;DHT22;51745;50.872;4.732;2023-02-27T16:02:14;4.90;99.90
9640;DHT22;51745;50.872;4.732;2023-02-27T16:05:02;4.90;99.90
9640;DHT22;51745;50.872;4.732;2023-02-27T16:07:51;4.90;99.90
9640;DHT22;51745;50.872;4.732;2023-02-27T16:10:40;5.00;99.90
9640;DHT22;51745;50.872;4.732;2023-02-27T16:13:30;5.00;99.90
9640;DHT22;51745;50.872;4.732;2023-02-27T16:16:23;5.10;99.90
9640;DHT22;51745;50.872;4.732;2023-02-27T16:19:15;4.90;99.90
9640;DHT22;51745;50.872;4.732;2023-02-27T16:22:12;4.70;99.90
9640;DHT22;51745;50.872;4.732;2023-02-27T16:25:06;4.60;99.90
9640;DHT22;51745;50.872;4.732;2023-02-27T16:30:44;4.40;99.90
9640;DHT22;51745;50.872;4.732;2023-02-27T16:33:32;4.40;99.90
9640;DHT22;51745;50.872;4.732;2023-02-27T16:36:22;4.40;99.90
9640;DHT22;51745;50.872;4.732;2023-02-27T16:39:10;4.40;99.90
9640;DHT22;51745;50.872;4.732;2023-02-27T16:42:00;4.40;99.90
9640;DHT22;51745;50.872;4.732;2023-02-27T16:44:48;4.20;99.90
9640;DHT22;51745;50.872;4.732;2023-02-27T16:47:37;4.20;99.90
9640;DHT22;51745;50.872;4.732;2023-02-27T16:50:26;4.10;99.90
9640;DHT22;51745;50.872;4.732;2023-02-27T16:53:15;4.10;99.90
9640;DHT22;51745;50.872;4.732;2023-02-27T16:56:03;4.00;99.90
9640;DHT22;51745;50.872;4.732;2023-02-27T16:58:51;4.00;99.90
9640;DHT22;51745;50.872;4.732;2023-02-27T17:01:38;4.00;99.90
9640;DHT22;51745;50.872;4.732;2023-02-27T17:04:29;4.00;99.90
9640;DHT22;51745;50.872;4.732;2023-02-27T17:07:16;3.90;99.90
9640;DHT22;51745;50.872;4.732;2023-02-27T17:10:05;3.80;99.90
9640;DHT22;51745;50.872;4.732;2023-02-27T17:12:53;2.80;99.90
9640;DHT22;51745;50.872;4.732;2023-02-27T17:15:41;5.80;99.90
9640;DHT22;51745;50.872;4.732;2023-02-27T17:18:29;3.80;99.90
9640;DHT22;51745;50.872;4.732;2023-02-27T17:21:18;3.60;99.90
9640;DHT22;51745;50.872;4.732;2023-02-27T17:24:05;3.80;99.90
9640;DHT22;51745;50.872;4.732;2023-02-27T17:26:53;3.50;99.90
9640;DHT22;51745;50.872;4.732;2023-02-27T17:29:41;3.60;99.90
9640;DHT22;51745;50.872;4.732;2023-02-27T17:32:29;3.30;99.90
9640;DHT22;51745;50.872;4.732;2023-02-27T17:35:17;3.20;99.90
9640;DHT22;51745;50.872;4.732;2023-02-27T17:38:06;3.20;99.90
9640;DHT22;51745;50.872;4.732;2023-02-27T17:40:54;3.20;99.90
9640;DHT22;51745;50.872;4.732;2023-02-27T17:43:42;3.20;99.90
9640;DHT22;51745;50.872;4.732;2023-02-27T17:46:30;3.20;99.90
9640;DHT22;51745;50.872;4.732;2023-02-27T17:49:18;3.30;99.90
9640;DHT22;51745;50.872;4.732;2023-02-27T17:52:06;3.10;99.90
9640;DHT22;51745;50.872;4.732;2023-02-27T17:54:55;3.20;99.90
9640;DHT22;51745;50.872;4.732;2023-02-27T17:57:43;3.10;99.90
9640;DHT22;51745;50.872;4.732;2023-02-27T18:00:31;2.90;99.90
9640;DHT22;51745;50.872;4.732;2023-02-27T18:03:18;2.80;99.90
9640;DHT22;51745;50.872;4.732;2023-02-27T18:06:07;2.90;99.90
9640;DHT22;51745;50.872;4.732;2023-02-27T18:08:54;2.90;99.90
9640;DHT22;51745;50.872;4.732;2023-02-27T18:11:44;3.00;99.90
9640;DHT22;51745;50.872;4.732;2023-02-27T18:14:33;3.90;99.90
9640;DHT22;51745;50.872;4.732;2023-02-27T18:17:22;3.00;99.90
9640;DHT22;51745;50.872;4.732;2023-02-27T18:20:11;2.70;99.90
9640;DHT22;51745;50.872;4.732;2023-02-27T18:22:59;2.80;99.90
9640;DHT22;51745;50.872;4.732;2023-02-27T18:25:51;2.80;99.90
9640;DHT22;51745;50.872;4.732;2023-02-27T18:28:41;2.90;99.90
9640;DHT22;51745;50.872;4.732;2023-02-27T18:31:32;2.80;99.90
9640;DHT22;51745;50.872;4.732;2023-02-27T18:34:20;2.70;99.90
9640;DHT22;51745;50.872;4.732;2023-02-27T18:37:08;2.60;99.90
9640;DHT22;51745;50.872;4.732;2023-02-27T18:39:56;2.40;99.90
9640;DHT22;51745;50.872;4.732;2023-02-27T18:42:44;2.40;99.90
9640;DHT22;51745;50.872;4.732;2023-02-27T18:45:36;2.80;99.90
9640;DHT22;51745;50.872;4.732;2023-02-27T18:48:24;0.30;99.90
9640;DHT22;51745;50.872;4.732;2023-02-27T18:51:13;2.60;99.90
9640;DHT22;51745;50.872;4.732;2023-02-27T18:54:01;3.70;99.90
9640;DHT22;51745;50.872;4.732;2023-02-27T18:56:50;2.60;99.90
9640;DHT22;51745;50.872;4.732;2023-02-27T18:59:38;2.50;99.90
9640;DHT22;51745;50.872;4.732;2023-02-27T19:02:29;2.40;99.90
9640;DHT22;51745;50.872;4.732;2023-02-27T19:05:22;2.40;99.90
9640;DHT22;51745;50.872;4.732;2023-02-27T19:08:10;2.30;99.90
9640;DHT22;51745;50.872;4.732;2023-02-27T19:10:58;2.40;99.90
9640;DHT22;51745;50.872;4.732;2023-02-27T19:13:46;2.20;99.90
9640;DHT22;51745;50.872;4.732;2023-02-27T19:16:34;2.10;99.90
9640;DHT22;51745;50.872;4.732;2023-02-27T19:19:24;2.10;99.90